Terminal Aerodrome Forecast
Issued by NWS

Home | Current Version | Previous Version | Text Only | Print | Product List | Glossary On
Versions: 1 2 3 4 5 6 7 8 9 10 11 12 13 14 15 16 17 18 19 20 21 22 23 24 25 26 27 28 29 30
000
FTUS44 KEWX 011900 AAB
TAFSSF
TAF AMD
KSSF 011942Z 0120/0218 34013KT P6SM SCT025 BKN035
     FM020200 01017G27KT P6SM BKN100
     FM021200 01010G17KT P6SM SKC=

USA.gov is the U.S. government's official web portal to all federal, state and local government web resources and services.